createdAt,value
2022-09-09T00:00:28.180Z,96928.34
2022-09-09T00:05:37.389Z,96924.75
2022-09-09T00:10:40.618Z,96926.91
2022-09-09T00:15:55.829Z,96920.13
2022-09-09T00:21:13.883Z,96925.13
2022-09-09T00:26:39.665Z,96905.44
2022-09-09T00:31:41.583Z,96900.69
2022-09-09T00:36:45.349Z,96893.88
2022-09-09T00:42:09.378Z,96890.03
2022-09-09T00:47:31.447Z,96888.13
2022-09-09T00:52:55.594Z,96892.19
2022-09-09T00:57:57.381Z,96895.00
2022-09-09T01:03:36.824Z,96899.59
2022-09-09T01:09:09.642Z,96902.41
2022-09-09T01:14:26.378Z,96900.66
2022-09-09T01:19:46.875Z,96896.97
2022-09-09T01:25:29.945Z,96899.94
2022-09-09T01:30:42.995Z,96887.97
2022-09-09T01:36:03.086Z,96889.75
2022-09-09T01:41:10.563Z,96903.63
2022-09-09T01:46:23.930Z,96912.88
2022-09-09T01:51:26.414Z,96906.03
2022-09-09T01:56:49.889Z,96901.38
2022-09-09T02:02:14.591Z,96898.53
2022-09-09T02:07:41.623Z,96904.00
2022-09-09T02:13:24.547Z,96897.56
2022-09-09T02:18:46.015Z,96893.09
2022-09-09T02:23:53.003Z,96891.75
2022-09-09T02:28:58.923Z,96882.53
2022-09-09T02:34:02.603Z,96879.09
2022-09-09T02:39:07.304Z,96881.19
2022-09-09T02:44:20.163Z,96871.38
2022-09-09T02:49:34.783Z,96864.91
2022-09-09T02:54:42.040Z,96866.06
2022-09-09T02:59:48.180Z,96862.50
2022-09-09T03:04:52.751Z,96862.59
2022-09-09T03:09:55.900Z,96857.53
2022-09-09T03:15:00.524Z,96865.28
2022-09-09T03:20:06.494Z,96865.41
2022-09-09T03:25:09.255Z,96866.00
2022-09-09T03:30:12.050Z,96878.44
2022-09-09T03:35:13.917Z,96872.72
2022-09-09T03:40:15.929Z,96883.84
2022-09-09T03:45:21.041Z,96878.94
2022-09-09T03:50:23.007Z,96875.75
2022-09-09T03:55:24.677Z,96876.41
2022-09-09T04:00:27.599Z,96875.31
2022-09-09T04:05:29.684Z,96884.25
2022-09-09T04:10:32.499Z,96879.84
2022-09-09T04:15:36.554Z,96874.50
2022-09-09T04:20:39.901Z,96870.47
2022-09-09T04:25:47.768Z,96860.06
2022-09-09T04:30:50.185Z,96859.78
2022-09-09T04:35:54.666Z,96861.84
2022-09-09T04:40:58.455Z,96855.53
2022-09-09T04:46:00.970Z,96854.44
2022-09-09T04:51:10.255Z,96854.09
2022-09-09T04:56:14.847Z,96866.97
2022-09-09T05:01:23.125Z,96860.56
2022-09-09T05:06:26.335Z,96867.84
2022-09-09T05:11:33.333Z,96871.28
2022-09-09T05:16:54.862Z,96883.94
2022-09-09T05:21:58.092Z,96877.09
2022-09-09T05:27:07.895Z,96882.38
2022-09-09T05:32:15.171Z,96889.31
2022-09-09T05:37:19.301Z,96900.09
2022-09-09T05:42:21.100Z,96888.94
2022-09-09T05:47:22.793Z,96885.56
2022-09-09T05:52:26.602Z,96879.84
2022-09-09T05:57:28.534Z,96891.19
2022-09-09T06:02:30.928Z,96892.66
2022-09-09T06:07:32.940Z,96877.59
2022-09-09T06:12:34.624Z,96867.66
2022-09-09T06:17:37.382Z,96873.25
2022-09-09T06:22:41.727Z,96877.69
2022-09-09T06:27:43.525Z,96901.44
2022-09-09T06:32:46.114Z,96970.50
2022-09-09T06:37:49.758Z,96965.09
2022-09-09T06:42:54.063Z,96980.75
2022-09-09T06:48:14.187Z,96955.53
2022-09-09T06:53:18.391Z,96991.59
2022-09-09T06:58:20.202Z,96986.53
2022-09-09T07:03:22.159Z,96970.59
2022-09-09T07:08:25.757Z,96985.47
2022-09-09T07:13:28.245Z,96981.03
2022-09-09T07:18:31.762Z,96988.59
2022-09-09T07:23:36.271Z,97000.31
2022-09-09T07:28:39.293Z,96997.06
2022-09-09T07:33:41.884Z,96977.03
2022-09-09T07:38:52.180Z,96978.16
2022-09-09T07:43:56.124Z,96996.66
2022-09-09T07:48:59.121Z,97010.16
2022-09-09T07:54:10.279Z,96973.66
2022-09-09T07:59:14.651Z,96963.84
2022-09-09T08:04:20.213Z,96987.25
2022-09-09T08:09:26.108Z,96975.59
2022-09-09T08:14:28.245Z,96977.31
2022-09-09T08:19:34.930Z,96969.53
2022-09-09T08:24:37.310Z,96977.00
2022-09-09T08:29:39.059Z,96983.31
2022-09-09T08:34:46.547Z,97011.31
2022-09-09T08:39:54.433Z,97025.81
2022-09-09T08:45:22.126Z,97027.03
2022-09-09T08:50:32.091Z,97009.13
2022-09-09T08:56:00.249Z,96997.81
2022-09-09T09:01:30.654Z,96977.28
2022-09-09T09:06:55.861Z,96961.56
2022-09-09T09:12:03.509Z,96956.41
2022-09-09T09:17:14.117Z,96964.66
2022-09-09T09:22:48.702Z,96986.53
2022-09-09T09:28:12.843Z,96986.84
2022-09-09T09:33:53.852Z,96978.19
2022-09-09T09:44:31.881Z,96993.22
2022-09-09T09:50:02.135Z,96986.19
2022-09-09T09:55:15.298Z,96984.91
2022-09-09T10:00:23.083Z,96984.28
2022-09-09T10:05:36.825Z,96977.06
2022-09-09T10:11:06.803Z,96980.66
2022-09-09T10:16:21.905Z,96971.31
2022-09-09T10:21:33.344Z,96983.31
2022-09-09T10:26:46.400Z,96983.91
2022-09-09T10:32:05.424Z,96989.78
2022-09-09T10:37:26.382Z,96985.69
2022-09-09T10:42:32.454Z,96985.34
2022-09-09T10:47:45.600Z,96976.69
2022-09-09T10:53:03.588Z,96975.88
2022-09-09T10:58:08.408Z,96969.47
2022-09-09T11:03:20.900Z,96973.47
2022-09-09T11:08:30.983Z,96973.91
2022-09-09T11:13:52.528Z,96962.25
2022-09-09T11:19:04.254Z,96975.00
2022-09-09T11:24:14.241Z,96965.50
2022-09-09T11:29:41.827Z,96968.75
2022-09-09T11:34:56.228Z,96967.41
2022-09-09T11:40:20.185Z,96960.50
2022-09-09T11:45:26.773Z,96967.56
2022-09-09T11:50:31.419Z,96953.84
2022-09-09T11:55:35.670Z,96954.66
2022-09-09T12:00:41.282Z,96957.91
2022-09-09T12:05:46.935Z,96959.16
2022-09-09T12:10:58.125Z,96967.75
2022-09-09T12:16:01.711Z,96955.28
2022-09-09T12:21:13.311Z,96949.13
2022-09-09T12:26:32.068Z,96947.75
2022-09-09T12:31:48.542Z,96930.38
2022-09-09T12:37:07.306Z,96925.00
2022-09-09T12:42:23.281Z,96925.03
2022-09-09T12:47:35.996Z,96913.53
2022-09-09T12:52:39.849Z,96906.38
2022-09-09T12:57:41.574Z,96901.28
2022-09-09T13:02:48.877Z,96896.66
2022-09-09T13:07:51.002Z,96891.66
2022-09-09T13:12:52.586Z,96884.88
2022-09-09T13:17:58.157Z,96886.28
2022-09-09T13:22:59.923Z,96884.53
2022-09-09T13:28:04.844Z,96876.25
2022-09-09T13:33:13.143Z,96862.44
2022-09-09T13:38:16.270Z,96850.44
2022-09-09T13:43:22.773Z,96849.56
2022-09-09T13:48:25.617Z,96845.75
2022-09-09T13:53:27.795Z,96843.47
2022-09-09T13:58:30.099Z,96825.03
2022-09-09T14:03:31.884Z,96827.50
2022-09-09T14:08:38.098Z,96822.03
2022-09-09T14:13:40.141Z,96818.31
2022-09-09T14:18:41.836Z,96828.28
2022-09-09T14:23:43.629Z,96829.28
2022-09-09T14:28:54.721Z,96846.81
2022-09-09T14:33:57.140Z,96859.38
2022-09-09T14:38:59.457Z,96856.66
2022-09-09T14:44:01.289Z,96861.41
2022-09-09T14:49:03.085Z,96868.53
2022-09-09T14:54:05.028Z,96870.53
2022-09-09T14:59:06.681Z,96867.81
2022-09-09T15:04:08.691Z,96875.00
2022-09-09T15:09:10.779Z,96876.09
2022-09-09T15:14:13.139Z,96871.81
2022-09-09T15:19:14.859Z,96882.53
2022-09-09T15:24:17.049Z,96864.94
2022-09-09T15:29:19.887Z,96853.34
2022-09-09T15:34:22.359Z,96831.28
2022-09-09T15:39:24.054Z,96815.88
2022-09-09T15:44:26.435Z,96801.44
2022-09-09T15:49:28.793Z,96803.50
2022-09-09T15:54:35.214Z,96799.88
2022-09-09T15:59:36.843Z,96808.16
2022-09-09T16:04:38.566Z,96823.53
2022-09-09T16:09:40.632Z,96822.84
2022-09-09T16:14:42.367Z,96825.88
2022-09-09T16:19:44.396Z,96842.94
2022-09-09T16:24:46.105Z,96836.75
2022-09-09T16:29:47.819Z,96831.41
2022-09-09T16:34:49.437Z,96836.47
2022-09-09T16:39:52.037Z,96842.19
2022-09-09T16:44:53.592Z,96842.59
2022-09-09T16:49:55.444Z,96840.38
2022-09-09T16:54:57.253Z,96846.34
2022-09-09T17:00:00.272Z,96849.69
2022-09-09T17:05:01.998Z,96853.00
2022-09-09T17:10:03.980Z,96841.94
2022-09-09T17:15:06.791Z,96856.03
2022-09-09T17:20:09.696Z,96865.63
2022-09-09T17:25:11.489Z,96867.72
2022-09-09T17:30:13.554Z,96908.19
2022-09-09T17:35:15.261Z,96876.22
2022-09-09T17:40:17.000Z,96902.47
2022-09-09T17:45:18.982Z,96919.03
2022-09-09T17:50:20.571Z,96906.66
2022-09-09T17:55:22.358Z,96901.81
2022-09-09T18:00:24.343Z,96898.69
2022-09-09T18:05:26.029Z,96910.06
2022-09-09T18:10:28.246Z,96906.38
2022-09-09T18:15:48.654Z,96901.47
2022-09-09T18:21:08.565Z,96917.56
2022-09-09T18:26:13.477Z,96906.00
2022-09-09T18:31:17.083Z,96920.19
2022-09-09T18:36:22.758Z,96926.00
2022-09-09T18:41:28.435Z,96959.19
2022-09-09T18:46:33.009Z,96967.16
2022-09-09T18:51:36.958Z,96953.91
2022-09-09T18:56:39.092Z,96966.75
2022-09-09T19:01:41.134Z,96968.16
2022-09-09T19:06:46.427Z,96983.91
2022-09-09T19:11:48.034Z,97000.69
2022-09-09T19:16:49.952Z,97016.66
2022-09-09T19:21:51.983Z,97019.09
2022-09-09T19:26:57.883Z,97018.09
2022-09-09T19:32:36.841Z,97001.31
2022-09-09T19:37:24.159Z,97018.66
2022-09-09T19:42:25.836Z,97008.28
2022-09-09T19:47:28.068Z,96991.88
2022-09-09T19:52:55.762Z,96989.66
2022-09-09T19:57:57.445Z,96981.06
2022-09-09T20:03:18.007Z,96988.47
2022-09-09T20:08:20.633Z,96992.03
2022-09-09T20:13:22.748Z,97016.53
2022-09-09T20:18:27.843Z,97023.06
2022-09-09T20:23:30.412Z,97010.78
2022-09-09T20:28:35.554Z,97010.69
2022-09-09T20:33:38.393Z,97018.34
2022-09-09T20:38:43.822Z,97047.69
2022-09-09T20:43:49.439Z,97043.31
2022-09-09T20:48:51.929Z,97040.47
2022-09-09T20:53:56.953Z,97028.47
2022-09-09T20:58:58.799Z,97032.34
2022-09-09T21:04:00.563Z,97036.16
2022-09-09T21:09:03.083Z,97041.78
2022-09-09T21:14:04.962Z,97038.19
2022-09-09T21:19:06.800Z,97045.66
2022-09-09T21:24:09.781Z,97045.59
2022-09-09T21:29:12.862Z,97043.31
2022-09-09T21:34:15.308Z,97045.72
2022-09-09T21:39:17.035Z,97049.75
2022-09-09T21:44:19.182Z,97048.28
2022-09-09T21:49:21.452Z,97045.59
2022-09-09T21:54:23.089Z,97048.84
2022-09-09T21:59:26.914Z,97059.13
2022-09-09T22:04:28.756Z,97056.81
2022-09-09T22:09:30.570Z,97054.00
2022-09-09T22:14:33.130Z,97043.00
2022-09-09T22:19:34.949Z,97048.41
2022-09-09T22:24:38.394Z,97061.91
2022-09-09T22:29:40.507Z,97068.13
2022-09-09T22:34:42.197Z,97064.94
2022-09-09T22:39:43.955Z,97058.09
2022-09-09T22:44:45.640Z,97067.28
2022-09-09T22:49:47.277Z,97068.31
2022-09-09T22:54:49.032Z,97064.00
2022-09-09T22:59:50.679Z,97069.88
2022-09-09T23:04:52.350Z,97076.63
2022-09-09T23:09:54.051Z,97074.31
2022-09-09T23:14:56.791Z,97076.09
2022-09-09T23:19:58.465Z,97067.31
2022-09-09T23:25:01.680Z,97069.25
2022-09-09T23:30:04.627Z,97065.09
2022-09-09T23:35:07.391Z,97065.25
2022-09-09T23:40:09.534Z,97059.81
2022-09-09T23:45:11.175Z,97053.47
2022-09-09T23:50:12.962Z,97049.72
2022-09-09T23:55:14.748Z,97051.41
